sensor_id;sensor_type;location;lat;lon;timestamp;temperature;humidity
67192;HTU21D;54120;53.504;49.426;2022-12-29T00:02:00;-7.47;87.78
67192;HTU21D;54120;53.504;49.426;2022-12-29T00:04:36;-7.49;88.17
67192;HTU21D;54120;53.504;49.426;2022-12-29T00:07:03;-7.50;88.22
67192;HTU21D;54120;53.504;49.426;2022-12-29T00:09:32;-7.49;88.74
67192;HTU21D;54120;53.504;49.426;2022-12-29T00:12:02;-7.52;88.44
67192;HTU21D;54120;53.504;49.426;2022-12-29T00:14:28;-7.51;88.60
67192;HTU21D;54120;53.504;49.426;2022-12-29T00:17:12;-7.47;88.53
67192;HTU21D;54120;53.504;49.426;2022-12-29T00:19:38;-7.45;87.98
67192;HTU21D;54120;53.504;49.426;2022-12-29T00:22:23;-7.46;87.78
67192;HTU21D;54120;53.504;49.426;2022-12-29T00:25:09;-7.45;87.86
67192;HTU21D;54120;53.504;49.426;2022-12-29T00:27:54;-7.44;86.89
67192;HTU21D;54120;53.504;49.426;2022-12-29T00:30:39;-7.44;87.38
67192;HTU21D;54120;53.504;49.426;2022-12-29T00:33:28;-7.44;86.88
67192;HTU21D;54120;53.504;49.426;2022-12-29T00:36:20;-7.40;87.33
67192;HTU21D;54120;53.504;49.426;2022-12-29T00:38:53;-7.39;87.33
67192;HTU21D;54120;53.504;49.426;2022-12-29T00:41:38;-7.39;86.87
67192;HTU21D;54120;53.504;49.426;2022-12-29T00:44:25;-7.39;86.59
67192;HTU21D;54120;53.504;49.426;2022-12-29T00:46:50;-7.39;86.58
67192;HTU21D;54120;53.504;49.426;2022-12-29T00:49:16;-7.40;87.19
67192;HTU21D;54120;53.504;49.426;2022-12-29T00:54:32;-7.39;86.86
67192;HTU21D;54120;53.504;49.426;2022-12-29T00:57:00;-7.39;87.21
67192;HTU21D;54120;53.504;49.426;2022-12-29T00:59:29;-7.40;87.19
67192;HTU21D;54120;53.504;49.426;2022-12-29T01:01:56;-7.44;87.35
67192;HTU21D;54120;53.504;49.426;2022-12-29T01:04:24;-7.44;87.55
67192;HTU21D;54120;53.504;49.426;2022-12-29T01:06:50;-7.46;87.79
67192;HTU21D;54120;53.504;49.426;2022-12-29T01:09:17;-7.47;87.94
67192;HTU21D;54120;53.504;49.426;2022-12-29T01:12:12;-7.46;88.35
67192;HTU21D;54120;53.504;49.426;2022-12-29T01:14:38;-7.46;88.38
67192;HTU21D;54120;53.504;49.426;2022-12-29T01:17:08;-7.48;88.40
67192;HTU21D;54120;53.504;49.426;2022-12-29T01:19:38;-7.48;88.60
67192;HTU21D;54120;53.504;49.426;2022-12-29T01:22:08;-7.48;88.38
67192;HTU21D;54120;53.504;49.426;2022-12-29T01:24:44;-7.44;88.82
67192;HTU21D;54120;53.504;49.426;2022-12-29T01:27:11;-7.47;88.65
67192;HTU21D;54120;53.504;49.426;2022-12-29T01:29:39;-7.44;88.60
67192;HTU21D;54120;53.504;49.426;2022-12-29T01:32:10;-7.41;88.70
67192;HTU21D;54120;53.504;49.426;2022-12-29T01:34:40;-7.40;88.47
67192;HTU21D;54120;53.504;49.426;2022-12-29T01:37:10;-7.39;88.88
67192;HTU21D;54120;53.504;49.426;2022-12-29T01:39:39;-7.40;88.71
67192;HTU21D;54120;53.504;49.426;2022-12-29T01:42:16;-7.39;88.55
67192;HTU21D;54120;53.504;49.426;2022-12-29T01:44:57;-7.38;88.17
67192;HTU21D;54120;53.504;49.426;2022-12-29T01:47:41;-7.33;87.73
67192;HTU21D;54120;53.504;49.426;2022-12-29T01:50:17;-7.33;87.64
67192;HTU21D;54120;53.504;49.426;2022-12-29T01:52:51;-7.30;87.44
67192;HTU21D;54120;53.504;49.426;2022-12-29T01:55:18;-7.31;87.75
67192;HTU21D;54120;53.504;49.426;2022-12-29T01:57:48;-7.31;87.99
67192;HTU21D;54120;53.504;49.426;2022-12-29T02:00:15;-7.32;88.28
67192;HTU21D;54120;53.504;49.426;2022-12-29T02:02:54;-7.29;87.96
67192;HTU21D;54120;53.504;49.426;2022-12-29T02:05:32;-7.31;88.35
67192;HTU21D;54120;53.504;49.426;2022-12-29T02:08:00;-7.27;88.46
67192;HTU21D;54120;53.504;49.426;2022-12-29T02:10:30;-7.26;88.60
67192;HTU21D;54120;53.504;49.426;2022-12-29T02:12:57;-7.25;88.59
67192;HTU21D;54120;53.504;49.426;2022-12-29T02:15:45;-7.27;88.47
67192;HTU21D;54120;53.504;49.426;2022-12-29T02:18:40;-7.27;88.46
67192;HTU21D;54120;53.504;49.426;2022-12-29T02:32:50;-7.36;89.36
67192;HTU21D;54120;53.504;49.426;2022-12-29T02:38:00;-7.36;89.41
67192;HTU21D;54120;53.504;49.426;2022-12-29T02:40:51;-7.30;88.73
67192;HTU21D;54120;53.504;49.426;2022-12-29T02:43:26;-7.30;88.74
67192;HTU21D;54120;53.504;49.426;2022-12-29T02:45:58;-7.30;88.54
67192;HTU21D;54120;53.504;49.426;2022-12-29T02:48:29;-7.30;88.72
67192;HTU21D;54120;53.504;49.426;2022-12-29T02:51:44;-7.30;88.89
67192;HTU21D;54120;53.504;49.426;2022-12-29T02:53:53;-7.32;88.96
67192;HTU21D;54120;53.504;49.426;2022-12-29T02:56:38;-7.33;89.42
67192;HTU21D;54120;53.504;49.426;2022-12-29T02:59:05;-7.34;89.43
67192;HTU21D;54120;53.504;49.426;2022-12-29T03:09:40;-7.36;89.47
67192;HTU21D;54120;53.504;49.426;2022-12-29T03:14:57;-7.38;89.21
67192;HTU21D;54120;53.504;49.426;2022-12-29T03:17:58;-7.42;88.66
67192;HTU21D;54120;53.504;49.426;2022-12-29T03:20:36;-7.44;88.33
67192;HTU21D;54120;53.504;49.426;2022-12-29T03:23:05;-7.40;88.25
67192;HTU21D;54120;53.504;49.426;2022-12-29T03:25:38;-7.42;88.31
67192;HTU21D;54120;53.504;49.426;2022-12-29T03:28:13;-7.37;87.93
67192;HTU21D;54120;53.504;49.426;2022-12-29T03:30:43;-7.36;87.61
67192;HTU21D;54120;53.504;49.426;2022-12-29T03:33:14;-7.37;87.71
67192;HTU21D;54120;53.504;49.426;2022-12-29T03:35:42;-7.39;87.96
67192;HTU21D;54120;53.504;49.426;2022-12-29T03:38:19;-7.36;87.99
67192;HTU21D;54120;53.504;49.426;2022-12-29T03:40:52;-7.38;88.23
67192;HTU21D;54120;53.504;49.426;2022-12-29T03:43:22;-7.40;88.15
67192;HTU21D;54120;53.504;49.426;2022-12-29T03:45:48;-7.38;87.88
67192;HTU21D;54120;53.504;49.426;2022-12-29T03:48:14;-7.40;87.86
67192;HTU21D;54120;53.504;49.426;2022-12-29T03:50:40;-7.36;88.03
67192;HTU21D;54120;53.504;49.426;2022-12-29T03:53:06;-7.34;87.54
67192;HTU21D;54120;53.504;49.426;2022-12-29T03:55:35;-7.36;87.82
67192;HTU21D;54120;53.504;49.426;2022-12-29T03:58:06;-7.36;88.00
67192;HTU21D;54120;53.504;49.426;2022-12-29T04:00:32;-7.38;88.27
67192;HTU21D;54120;53.504;49.426;2022-12-29T04:02:59;-7.37;88.89
67192;HTU21D;54120;53.504;49.426;2022-12-29T04:05:25;-7.38;88.91
67192;HTU21D;54120;53.504;49.426;2022-12-29T04:07:51;-7.39;89.60
67192;HTU21D;54120;53.504;49.426;2022-12-29T04:10:17;-7.39;89.66
67192;HTU21D;54120;53.504;49.426;2022-12-29T04:12:43;-7.38;89.99
67192;HTU21D;54120;53.504;49.426;2022-12-29T04:15:11;-7.40;90.40
67192;HTU21D;54120;53.504;49.426;2022-12-29T04:17:38;-7.45;90.73
67192;HTU21D;54120;53.504;49.426;2022-12-29T04:20:09;-7.42;90.64
67192;HTU21D;54120;53.504;49.426;2022-12-29T04:23:01;-7.42;90.24
67192;HTU21D;54120;53.504;49.426;2022-12-29T04:25:27;-7.40;89.94
67192;HTU21D;54120;53.504;49.426;2022-12-29T04:27:53;-7.39;89.97
67192;HTU21D;54120;53.504;49.426;2022-12-29T04:30:19;-7.36;89.85
67192;HTU21D;54120;53.504;49.426;2022-12-29T04:32:45;-7.34;89.38
67192;HTU21D;54120;53.504;49.426;2022-12-29T04:35:12;-7.39;89.04
67192;HTU21D;54120;53.504;49.426;2022-12-29T04:37:43;-7.38;89.29
67192;HTU21D;54120;53.504;49.426;2022-12-29T04:40:19;-7.37;89.02
67192;HTU21D;54120;53.504;49.426;2022-12-29T04:42:46;-7.37;89.00
67192;HTU21D;54120;53.504;49.426;2022-12-29T04:45:12;-7.37;89.29
67192;HTU21D;54120;53.504;49.426;2022-12-29T04:47:39;-7.37;89.59
67192;HTU21D;54120;53.504;49.426;2022-12-29T04:50:05;-7.37;89.92
67192;HTU21D;54120;53.504;49.426;2022-12-29T04:52:31;-7.37;89.58
67192;HTU21D;54120;53.504;49.426;2022-12-29T04:54:57;-7.39;90.07
67192;HTU21D;54120;53.504;49.426;2022-12-29T04:57:23;-7.37;90.44
67192;HTU21D;54120;53.504;49.426;2022-12-29T04:59:49;-7.35;89.96
67192;HTU21D;54120;53.504;49.426;2022-12-29T05:02:20;-7.37;90.05
67192;HTU21D;54120;53.504;49.426;2022-12-29T05:04:46;-7.37;90.02
67192;HTU21D;54120;53.504;49.426;2022-12-29T05:07:12;-7.35;89.46
67192;HTU21D;54120;53.504;49.426;2022-12-29T05:09:38;-7.34;89.47
67192;HTU21D;54120;53.504;49.426;2022-12-29T05:12:04;-7.33;89.67
67192;HTU21D;54120;53.504;49.426;2022-12-29T05:14:30;-7.33;89.79
67192;HTU21D;54120;53.504;49.426;2022-12-29T05:16:57;-7.26;89.66
67192;HTU21D;54120;53.504;49.426;2022-12-29T05:19:23;-7.25;89.29
67192;HTU21D;54120;53.504;49.426;2022-12-29T05:21:51;-7.21;88.90
67192;HTU21D;54120;53.504;49.426;2022-12-29T05:24:17;-7.17;88.70
67192;HTU21D;54120;53.504;49.426;2022-12-29T05:26:43;-7.20;88.75
67192;HTU21D;54120;53.504;49.426;2022-12-29T05:29:09;-7.21;88.56
67192;HTU21D;54120;53.504;49.426;2022-12-29T05:31:35;-7.22;89.79
67192;HTU21D;54120;53.504;49.426;2022-12-29T05:34:02;-7.24;90.01
67192;HTU21D;54120;53.504;49.426;2022-12-29T05:36:28;-7.24;89.98
67192;HTU21D;54120;53.504;49.426;2022-12-29T05:38:54;-7.24;89.46
67192;HTU21D;54120;53.504;49.426;2022-12-29T05:41:20;-7.25;89.93
67192;HTU21D;54120;53.504;49.426;2022-12-29T05:43:46;-7.22;90.31
67192;HTU21D;54120;53.504;49.426;2022-12-29T05:46:12;-7.20;89.82
67192;HTU21D;54120;53.504;49.426;2022-12-29T05:48:38;-7.15;89.34
67192;HTU21D;54120;53.504;49.426;2022-12-29T05:51:06;-7.10;88.73
67192;HTU21D;54120;53.504;49.426;2022-12-29T05:53:32;-7.10;88.13
67192;HTU21D;54120;53.504;49.426;2022-12-29T05:55:59;-7.05;88.53
67192;HTU21D;54120;53.504;49.426;2022-12-29T05:58:25;-7.05;87.36
67192;HTU21D;54120;53.504;49.426;2022-12-29T06:00:51;-7.07;87.75
67192;HTU21D;54120;53.504;49.426;2022-12-29T06:03:17;-7.07;87.35
67192;HTU21D;54120;53.504;49.426;2022-12-29T06:05:45;-7.03;87.17
67192;HTU21D;54120;53.504;49.426;2022-12-29T06:08:11;-7.03;86.38
67192;HTU21D;54120;53.504;49.426;2022-12-29T06:10:41;-7.06;86.56
67192;HTU21D;54120;53.504;49.426;2022-12-29T06:13:17;-7.01;86.11
67192;HTU21D;54120;53.504;49.426;2022-12-29T06:15:44;-6.91;85.64
67192;HTU21D;54120;53.504;49.426;2022-12-29T06:18:14;-6.89;85.35
67192;HTU21D;54120;53.504;49.426;2022-12-29T06:20:40;-6.80;84.74
67192;HTU21D;54120;53.504;49.426;2022-12-29T06:23:06;-6.79;84.62
67192;HTU21D;54120;53.504;49.426;2022-12-29T06:25:32;-6.82;84.42
67192;HTU21D;54120;53.504;49.426;2022-12-29T06:27:59;-6.80;84.99
67192;HTU21D;54120;53.504;49.426;2022-12-29T06:30:26;-6.82;84.94
67192;HTU21D;54120;53.504;49.426;2022-12-29T06:32:52;-6.80;85.37
67192;HTU21D;54120;53.504;49.426;2022-12-29T06:35:18;-6.76;85.62
67192;HTU21D;54120;53.504;49.426;2022-12-29T06:37:44;-6.67;84.95
67192;HTU21D;54120;53.504;49.426;2022-12-29T06:40:10;-6.68;85.06
67192;HTU21D;54120;53.504;49.426;2022-12-29T06:42:41;-6.63;85.06
67192;HTU21D;54120;53.504;49.426;2022-12-29T06:45:07;-6.45;84.51
67192;HTU21D;54120;53.504;49.426;2022-12-29T06:47:34;-6.33;84.23
67192;HTU21D;54120;53.504;49.426;2022-12-29T06:50:01;-6.18;83.52
67192;HTU21D;54120;53.504;49.426;2022-12-29T06:52:28;-5.94;83.19
67192;HTU21D;54120;53.504;49.426;2022-12-29T06:54:55;-5.82;81.81
67192;HTU21D;54120;53.504;49.426;2022-12-29T06:57:27;-5.86;82.02
67192;HTU21D;54120;53.504;49.426;2022-12-29T07:00:05;-5.86;81.99
67192;HTU21D;54120;53.504;49.426;2022-12-29T07:02:31;-5.88;82.08
67192;HTU21D;54120;53.504;49.426;2022-12-29T07:04:57;-6.07;82.60
67192;HTU21D;54120;53.504;49.426;2022-12-29T07:07:24;-6.19;83.45
67192;HTU21D;54120;53.504;49.426;2022-12-29T07:09:50;-6.29;83.74
67192;HTU21D;54120;53.504;49.426;2022-12-29T07:12:16;-6.44;84.05
67192;HTU21D;54120;53.504;49.426;2022-12-29T07:14:42;-6.52;84.57
67192;HTU21D;54120;53.504;49.426;2022-12-29T07:17:08;-6.52;84.72
67192;HTU21D;54120;53.504;49.426;2022-12-29T07:19:39;-6.35;84.39
67192;HTU21D;54120;53.504;49.426;2022-12-29T07:22:16;-6.19;83.88
67192;HTU21D;54120;53.504;49.426;2022-12-29T07:24:42;-6.08;82.80
67192;HTU21D;54120;53.504;49.426;2022-12-29T07:27:13;-6.20;83.00
67192;HTU21D;54120;53.504;49.426;2022-12-29T07:29:44;-6.29;83.33
67192;HTU21D;54120;53.504;49.426;2022-12-29T07:32:20;-6.24;84.03
67192;HTU21D;54120;53.504;49.426;2022-12-29T07:34:49;-6.38;83.57
67192;HTU21D;54120;53.504;49.426;2022-12-29T07:37:20;-6.42;84.21
67192;HTU21D;54120;53.504;49.426;2022-12-29T07:39:50;-6.38;83.89
67192;HTU21D;54120;53.504;49.426;2022-12-29T07:42:16;-6.31;83.65
67192;HTU21D;54120;53.504;49.426;2022-12-29T07:44:42;-6.19;83.36
67192;HTU21D;54120;53.504;49.426;2022-12-29T07:47:08;-6.22;83.39
67192;HTU21D;54120;53.504;49.426;2022-12-29T07:49:34;-6.21;83.33
67192;HTU21D;54120;53.504;49.426;2022-12-29T07:52:00;-6.15;83.29
67192;HTU21D;54120;53.504;49.426;2022-12-29T07:54:26;-6.06;83.23
67192;HTU21D;54120;53.504;49.426;2022-12-29T07:56:52;-6.05;82.97
67192;HTU21D;54120;53.504;49.426;2022-12-29T07:59:18;-6.12;83.17
67192;HTU21D;54120;53.504;49.426;2022-12-29T08:01:44;-6.04;83.20
67192;HTU21D;54120;53.504;49.426;2022-12-29T08:04:10;-6.03;82.53
67192;HTU21D;54120;53.504;49.426;2022-12-29T08:06:36;-5.98;82.62
67192;HTU21D;54120;53.504;49.426;2022-12-29T08:09:04;-6.01;82.27
67192;HTU21D;54120;53.504;49.426;2022-12-29T08:11:30;-6.02;82.65
67192;HTU21D;54120;53.504;49.426;2022-12-29T08:13:56;-5.93;82.94
67192;HTU21D;54120;53.504;49.426;2022-12-29T08:16:24;-5.98;82.70
67192;HTU21D;54120;53.504;49.426;2022-12-29T08:18:50;-5.83;82.64
67192;HTU21D;54120;53.504;49.426;2022-12-29T08:21:16;-5.75;83.39
67192;HTU21D;54120;53.504;49.426;2022-12-29T08:23:42;-5.77;82.86
67192;HTU21D;54120;53.504;49.426;2022-12-29T08:26:09;-5.93;83.54
67192;HTU21D;54120;53.504;49.426;2022-12-29T08:28:35;-6.00;84.01
67192;HTU21D;54120;53.504;49.426;2022-12-29T08:31:13;-6.00;84.44
67192;HTU21D;54120;53.504;49.426;2022-12-29T08:33:42;-5.85;84.64
67192;HTU21D;54120;53.504;49.426;2022-12-29T08:36:11;-5.58;84.35
67192;HTU21D;54120;53.504;49.426;2022-12-29T08:38:37;-5.49;83.37
67192;HTU21D;54120;53.504;49.426;2022-12-29T08:41:06;-5.40;83.51
67192;HTU21D;54120;53.504;49.426;2022-12-29T08:43:32;-5.15;83.14
67192;HTU21D;54120;53.504;49.426;2022-12-29T08:45:58;-4.91;82.53
67192;HTU21D;54120;53.504;49.426;2022-12-29T08:48:25;-4.90;81.49
67192;HTU21D;54120;53.504;49.426;2022-12-29T08:50:51;-5.01;81.48
67192;HTU21D;54120;53.504;49.426;2022-12-29T08:53:19;-5.13;82.13
67192;HTU21D;54120;53.504;49.426;2022-12-29T08:55:46;-5.17;81.75
67192;HTU21D;54120;53.504;49.426;2022-12-29T08:58:13;-5.20;82.33
67192;HTU21D;54120;53.504;49.426;2022-12-29T09:00:41;-5.23;82.14
67192;HTU21D;54120;53.504;49.426;2022-12-29T09:03:11;-5.20;81.50
67192;HTU21D;54120;53.504;49.426;2022-12-29T09:05:37;-5.30;81.80
67192;HTU21D;54120;53.504;49.426;2022-12-29T09:08:04;-5.32;82.37
67192;HTU21D;54120;53.504;49.426;2022-12-29T09:10:31;-5.29;82.26
67192;HTU21D;54120;53.504;49.426;2022-12-29T09:12:57;-5.30;82.27
67192;HTU21D;54120;53.504;49.426;2022-12-29T09:15:23;-5.15;82.32
67192;HTU21D;54120;53.504;49.426;2022-12-29T09:17:49;-5.07;81.91
67192;HTU21D;54120;53.504;49.426;2022-12-29T09:20:18;-4.84;81.40
67192;HTU21D;54120;53.504;49.426;2022-12-29T09:22:45;-4.71;80.19
67192;HTU21D;54120;53.504;49.426;2022-12-29T09:25:13;-4.69;80.59
67192;HTU21D;54120;53.504;49.426;2022-12-29T09:27:41;-4.60;80.62
67192;HTU21D;54120;53.504;49.426;2022-12-29T09:30:09;-4.40;80.43
67192;HTU21D;54120;53.504;49.426;2022-12-29T09:32:36;-4.28;79.01
67192;HTU21D;54120;53.504;49.426;2022-12-29T09:35:02;-4.26;79.39
67192;HTU21D;54120;53.504;49.426;2022-12-29T09:37:29;-4.13;79.40
67192;HTU21D;54120;53.504;49.426;2022-12-29T09:39:58;-3.81;77.71
67192;HTU21D;54120;53.504;49.426;2022-12-29T09:47:59;-3.80;76.62
67192;HTU21D;54120;53.504;49.426;2022-12-29T09:50:34;-3.77;75.95
67192;HTU21D;54120;53.504;49.426;2022-12-29T09:53:11;-3.65;74.70
67192;HTU21D;54120;53.504;49.426;2022-12-29T09:55:48;-3.74;75.47
67192;HTU21D;54120;53.504;49.426;2022-12-29T09:58:25;-3.54;74.44
67192;HTU21D;54120;53.504;49.426;2022-12-29T10:04:08;-4.20;76.23
67192;HTU21D;54120;53.504;49.426;2022-12-29T10:09:25;-3.97;76.31
67192;HTU21D;54120;53.504;49.426;2022-12-29T10:15:18;-4.12;76.33
67192;HTU21D;54120;53.504;49.426;2022-12-29T10:17:58;-4.11;77.54
67192;HTU21D;54120;53.504;49.426;2022-12-29T10:25:48;-4.81;78.82
67192;HTU21D;54120;53.504;49.426;2022-12-29T10:28:21;-4.93;79.66
67192;HTU21D;54120;53.504;49.426;2022-12-29T10:30:48;-5.00;80.53
67192;HTU21D;54120;53.504;49.426;2022-12-29T10:33:32;-5.09;81.11
67192;HTU21D;54120;53.504;49.426;2022-12-29T10:36:09;-5.02;80.75
67192;HTU21D;54120;53.504;49.426;2022-12-29T10:41:38;-4.93;80.16
67192;HTU21D;54120;53.504;49.426;2022-12-29T10:44:07;-5.02;79.94
67192;HTU21D;54120;53.504;49.426;2022-12-29T10:46:36;-5.10;79.90
67192;HTU21D;54120;53.504;49.426;2022-12-29T10:49:08;-5.30;83.23
67192;HTU21D;54120;53.504;49.426;2022-12-29T10:51:39;-5.15;82.46
67192;HTU21D;54120;53.504;49.426;2022-12-29T10:59:48;-5.16;82.05
67192;HTU21D;54120;53.504;49.426;2022-12-29T11:07:58;-5.44;82.69
67192;HTU21D;54120;53.504;49.426;2022-12-29T11:10:35;-5.54;82.59
67192;HTU21D;54120;53.504;49.426;2022-12-29T11:13:12;-5.79;83.16
67192;HTU21D;54120;53.504;49.426;2022-12-29T11:15:48;-5.91;83.78
67192;HTU21D;54120;53.504;49.426;2022-12-29T11:20:57;-5.87;84.52
67192;HTU21D;54120;53.504;49.426;2022-12-29T11:23:30;-5.71;84.31
67192;HTU21D;54120;53.504;49.426;2022-12-29T11:26:20;-5.65;83.80
67192;HTU21D;54120;53.504;49.426;2022-12-29T11:31:28;-5.62;84.04
67192;HTU21D;54120;53.504;49.426;2022-12-29T11:33:58;-5.53;83.58
67192;HTU21D;54120;53.504;49.426;2022-12-29T11:36:24;-5.43;83.83
67192;HTU21D;54120;53.504;49.426;2022-12-29T11:38:54;-5.32;83.21
67192;HTU21D;54120;53.504;49.426;2022-12-29T11:41:24;-5.28;83.07
67192;HTU21D;54120;53.504;49.426;2022-12-29T11:43:52;-5.26;82.68
67192;HTU21D;54120;53.504;49.426;2022-12-29T11:46:34;-5.31;83.20
67192;HTU21D;54120;53.504;49.426;2022-12-29T11:49:02;-5.20;83.55
67192;HTU21D;54120;53.504;49.426;2022-12-29T11:51:35;-5.19;82.49
67192;HTU21D;54120;53.504;49.426;2022-12-29T11:54:04;-5.28;82.62
67192;HTU21D;54120;53.504;49.426;2022-12-29T11:56:39;-5.33;83.40
67192;HTU21D;54120;53.504;49.426;2022-12-29T12:01:58;-5.39;83.27
67192;HTU21D;54120;53.504;49.426;2022-12-29T12:04:34;-5.35;83.87
67192;HTU21D;54120;53.504;49.426;2022-12-29T12:07:24;-5.41;84.12
67192;HTU21D;54120;53.504;49.426;2022-12-29T12:09:58;-5.38;83.63
67192;HTU21D;54120;53.504;49.426;2022-12-29T12:12:29;-5.42;83.94
67192;HTU21D;54120;53.504;49.426;2022-12-29T12:14:58;-5.40;83.90
67192;HTU21D;54120;53.504;49.426;2022-12-29T12:17:31;-5.44;83.81
67192;HTU21D;54120;53.504;49.426;2022-12-29T12:20:05;-5.49;84.12
67192;HTU21D;54120;53.504;49.426;2022-12-29T12:22:47;-5.47;84.02
67192;HTU21D;54120;53.504;49.426;2022-12-29T12:25:24;-5.54;84.16
67192;HTU21D;54120;53.504;49.426;2022-12-29T12:28:03;-5.48;84.28
67192;HTU21D;54120;53.504;49.426;2022-12-29T12:30:46;-5.55;84.32
67192;HTU21D;54120;53.504;49.426;2022-12-29T12:33:41;-5.57;85.13
67192;HTU21D;54120;53.504;49.426;2022-12-29T12:39:06;-5.57;84.16
67192;HTU21D;54120;53.504;49.426;2022-12-29T12:50:02;-5.59;84.97
67192;HTU21D;54120;53.504;49.426;2022-12-29T12:55:25;-5.69;85.05
67192;HTU21D;54120;53.504;49.426;2022-12-29T13:00:39;-5.71;84.97
67192;HTU21D;54120;53.504;49.426;2022-12-29T13:11:04;-5.85;85.71
67192;HTU21D;54120;53.504;49.426;2022-12-29T13:14:00;-5.82;86.25
67192;HTU21D;54120;53.504;49.426;2022-12-29T13:16:41;-5.82;86.29
67192;HTU21D;54120;53.504;49.426;2022-12-29T13:27:00;-5.87;86.93
67192;HTU21D;54120;53.504;49.426;2022-12-29T13:29:50;-5.86;86.86
67192;HTU21D;54120;53.504;49.426;2022-12-29T13:35:01;-5.84;87.32
67192;HTU21D;54120;53.504;49.426;2022-12-29T13:37:32;-5.87;86.75
67192;HTU21D;54120;53.504;49.426;2022-12-29T13:42:34;-5.89;86.86
67192;HTU21D;54120;53.504;49.426;2022-12-29T13:45:04;-5.88;87.19
67192;HTU21D;54120;53.504;49.426;2022-12-29T13:47:46;-5.86;87.06
67192;HTU21D;54120;53.504;49.426;2022-12-29T13:50:22;-5.84;87.15
67192;HTU21D;54120;53.504;49.426;2022-12-29T13:55:48;-5.83;87.04
67192;HTU21D;54120;53.504;49.426;2022-12-29T13:58:38;-5.77;86.32
67192;HTU21D;54120;53.504;49.426;2022-12-29T14:03:56;-5.81;86.35
67192;HTU21D;54120;53.504;49.426;2022-12-29T14:06:26;-5.79;86.18
67192;HTU21D;54120;53.504;49.426;2022-12-29T14:08:58;-5.79;86.16
67192;HTU21D;54120;53.504;49.426;2022-12-29T14:11:39;-5.82;86.12
67192;HTU21D;54120;53.504;49.426;2022-12-29T14:14:23;-5.78;86.22
67192;HTU21D;54120;53.504;49.426;2022-12-29T14:16:50;-5.78;86.06
67192;HTU21D;54120;53.504;49.426;2022-12-29T14:19:24;-5.79;86.16
67192;HTU21D;54120;53.504;49.426;2022-12-29T14:21:57;-5.78;86.44
67192;HTU21D;54120;53.504;49.426;2022-12-29T14:29:51;-5.78;86.14
67192;HTU21D;54120;53.504;49.426;2022-12-29T14:41:18;-5.79;86.32
67192;HTU21D;54120;53.504;49.426;2022-12-29T14:44:01;-5.81;86.32
67192;HTU21D;54120;53.504;49.426;2022-12-29T14:46:54;-5.84;86.47
67192;HTU21D;54120;53.504;49.426;2022-12-29T14:49:40;-5.85;86.70
67192;HTU21D;54120;53.504;49.426;2022-12-29T14:52:22;-5.87;86.85
67192;HTU21D;54120;53.504;49.426;2022-12-29T14:54:54;-5.90;87.03
67192;HTU21D;54120;53.504;49.426;2022-12-29T14:57:31;-5.86;87.15
67192;HTU21D;54120;53.504;49.426;2022-12-29T15:00:17;-5.81;87.29
67192;HTU21D;54120;53.504;49.426;2022-12-29T15:03:19;-5.70;86.86
67192;HTU21D;54120;53.504;49.426;2022-12-29T15:08:20;-5.70;86.40
67192;HTU21D;54120;53.504;49.426;2022-12-29T15:10:53;-5.71;86.57
67192;HTU21D;54120;53.504;49.426;2022-12-29T15:13:40;-5.70;86.57
67192;HTU21D;54120;53.504;49.426;2022-12-29T15:16:33;-5.68;86.46
67192;HTU21D;54120;53.504;49.426;2022-12-29T15:19:03;-5.68;86.17
67192;HTU21D;54120;53.504;49.426;2022-12-29T15:21:35;-5.73;86.14
67192;HTU21D;54120;53.504;49.426;2022-12-29T15:24:05;-5.73;86.68
67192;HTU21D;54120;53.504;49.426;2022-12-29T15:26:39;-5.67;87.26
67192;HTU21D;54120;53.504;49.426;2022-12-29T15:29:39;-5.61;87.08
67192;HTU21D;54120;53.504;49.426;2022-12-29T15:34:43;-5.62;86.69
67192;HTU21D;54120;53.504;49.426;2022-12-29T15:37:15;-5.69;86.77
67192;HTU21D;54120;53.504;49.426;2022-12-29T15:39:42;-5.70;86.46
67192;HTU21D;54120;53.504;49.426;2022-12-29T15:44:52;-5.70;87.31
67192;HTU21D;54120;53.504;49.426;2022-12-29T15:47:23;-5.69;86.83
67192;HTU21D;54120;53.504;49.426;2022-12-29T15:50:01;-5.75;86.81
67192;HTU21D;54120;53.504;49.426;2022-12-29T15:52:28;-5.74;87.15
67192;HTU21D;54120;53.504;49.426;2022-12-29T15:54:58;-5.72;87.10
67192;HTU21D;54120;53.504;49.426;2022-12-29T15:57:42;-5.74;87.07
67192;HTU21D;54120;53.504;49.426;2022-12-29T16:00:35;-5.78;87.22
67192;HTU21D;54120;53.504;49.426;2022-12-29T16:03:04;-5.78;87.38
67192;HTU21D;54120;53.504;49.426;2022-12-29T16:05:36;-5.78;88.10
67192;HTU21D;54120;53.504;49.426;2022-12-29T16:08:03;-5.74;88.44
67192;HTU21D;54120;53.504;49.426;2022-12-29T16:12:52;-5.62;87.96
67192;HTU21D;54120;53.504;49.426;2022-12-29T16:15:29;-5.67;87.67
67192;HTU21D;54120;53.504;49.426;2022-12-29T16:17:55;-5.64;87.51
67192;HTU21D;54120;53.504;49.426;2022-12-29T16:20:24;-5.63;87.61
67192;HTU21D;54120;53.504;49.426;2022-12-29T16:22:56;-5.61;87.61
67192;HTU21D;54120;53.504;49.426;2022-12-29T16:25:29;-5.64;87.40
67192;HTU21D;54120;53.504;49.426;2022-12-29T16:27:58;-5.68;87.73
67192;HTU21D;54120;53.504;49.426;2022-12-29T16:30:27;-5.70;87.61
67192;HTU21D;54120;53.504;49.426;2022-12-29T16:32:56;-5.77;87.54
67192;HTU21D;54120;53.504;49.426;2022-12-29T16:35:28;-5.76;88.34
67192;HTU21D;54120;53.504;49.426;2022-12-29T16:38:16;-5.78;87.90
67192;HTU21D;54120;53.504;49.426;2022-12-29T16:41:02;-5.73;88.34
67192;HTU21D;54120;53.504;49.426;2022-12-29T16:43:38;-5.63;87.79
67192;HTU21D;54120;53.504;49.426;2022-12-29T16:46:30;-5.59;87.56
67192;HTU21D;54120;53.504;49.426;2022-12-29T16:48:57;-5.58;87.57
67192;HTU21D;54120;53.504;49.426;2022-12-29T16:51:30;-5.60;88.00
67192;HTU21D;54120;53.504;49.426;2022-12-29T16:53:59;-5.57;87.45
67192;HTU21D;54120;53.504;49.426;2022-12-29T16:56:28;-5.69;87.62
67192;HTU21D;54120;53.504;49.426;2022-12-29T16:59:06;-5.71;87.66
67192;HTU21D;54120;53.504;49.426;2022-12-29T17:01:37;-5.65;88.01
67192;HTU21D;54120;53.504;49.426;2022-12-29T17:04:11;-5.61;87.63
67192;HTU21D;54120;53.504;49.426;2022-12-29T17:06:38;-5.65;87.57
67192;HTU21D;54120;53.504;49.426;2022-12-29T17:11:48;-5.72;88.17
67192;HTU21D;54120;53.504;49.426;2022-12-29T17:17:09;-5.64;87.81
67192;HTU21D;54120;53.504;49.426;2022-12-29T17:19:37;-5.58;87.80
67192;HTU21D;54120;53.504;49.426;2022-12-29T17:22:23;-5.55;87.67
67192;HTU21D;54120;53.504;49.426;2022-12-29T17:24:54;-5.57;87.59
67192;HTU21D;54120;53.504;49.426;2022-12-29T17:27:35;-5.55;87.46
67192;HTU21D;54120;53.504;49.426;2022-12-29T17:30:22;-5.62;87.58
67192;HTU21D;54120;53.504;49.426;2022-12-29T17:33:15;-5.60;87.85
67192;HTU21D;54120;53.504;49.426;2022-12-29T17:35:40;-5.61;87.54
67192;HTU21D;54120;53.504;49.426;2022-12-29T17:38:29;-5.64;87.41
67192;HTU21D;54120;53.504;49.426;2022-12-29T17:40:57;-5.68;87.78
67192;HTU21D;54120;53.504;49.426;2022-12-29T17:43:23;-5.74;87.73
67192;HTU21D;54120;53.504;49.426;2022-12-29T17:45:54;-5.83;88.01
67192;HTU21D;54120;53.504;49.426;2022-12-29T17:48:21;-5.91;88.34
67192;HTU21D;54120;53.504;49.426;2022-12-29T17:50:49;-5.91;88.77
67192;HTU21D;54120;53.504;49.426;2022-12-29T17:53:20;-5.93;88.80
67192;HTU21D;54120;53.504;49.426;2022-12-29T17:55:47;-6.01;89.02